sensor_id;sensor_type;location;lat;lon;timestamp;P1;durP1;ratioP1;P2;durP2;ratioP2
14181;SDS011;7171;50.936;6.764;2024-03-25T00:00:33;6.50;;;1.90;;
14181;SDS011;7171;50.936;6.764;2024-03-25T00:03:02;3.83;;;2.10;;
14181;SDS011;7171;50.936;6.764;2024-03-25T00:05:28;5.30;;;1.97;;
14181;SDS011;7171;50.936;6.764;2024-03-25T00:07:56;5.73;;;2.83;;
14181;SDS011;7171;50.936;6.764;2024-03-25T00:10:23;5.60;;;2.40;;
14181;SDS011;7171;50.936;6.764;2024-03-25T00:12:50;5.67;;;2.20;;
14181;SDS011;7171;50.936;6.764;2024-03-25T00:15:19;6.30;;;2.10;;
14181;SDS011;7171;50.936;6.764;2024-03-25T00:17:46;5.50;;;1.87;;
14181;SDS011;7171;50.936;6.764;2024-03-25T00:20:13;5.63;;;1.97;;
14181;SDS011;7171;50.936;6.764;2024-03-25T00:22:41;4.07;;;1.83;;
14181;SDS011;7171;50.936;6.764;2024-03-25T00:25:07;8.07;;;2.50;;
14181;SDS011;7171;50.936;6.764;2024-03-25T00:27:34;4.67;;;2.43;;
14181;SDS011;7171;50.936;6.764;2024-03-25T00:30:00;5.27;;;2.37;;
14181;SDS011;7171;50.936;6.764;2024-03-25T00:32:27;5.20;;;2.03;;
14181;SDS011;7171;50.936;6.764;2024-03-25T00:34:53;3.90;;;2.10;;
14181;SDS011;7171;50.936;6.764;2024-03-25T00:37:21;2.97;;;2.20;;
14181;SDS011;7171;50.936;6.764;2024-03-25T00:39:47;3.20;;;2.47;;
14181;SDS011;7171;50.936;6.764;2024-03-25T00:42:13;6.63;;;2.87;;
14181;SDS011;7171;50.936;6.764;2024-03-25T00:44:39;7.07;;;2.50;;
14181;SDS011;7171;50.936;6.764;2024-03-25T00:47:06;3.70;;;2.90;;
14181;SDS011;7171;50.936;6.764;2024-03-25T00:49:32;7.00;;;2.47;;
14181;SDS011;7171;50.936;6.764;2024-03-25T00:51:59;6.97;;;2.90;;
14181;SDS011;7171;50.936;6.764;2024-03-25T00:54:26;6.27;;;2.43;;
14181;SDS011;7171;50.936;6.764;2024-03-25T00:56:52;4.83;;;2.30;;
14181;SDS011;7171;50.936;6.764;2024-03-25T00:59:18;6.83;;;2.30;;
14181;SDS011;7171;50.936;6.764;2024-03-25T01:01:45;3.80;;;2.60;;
14181;SDS011;7171;50.936;6.764;2024-03-25T01:04:11;8.57;;;2.43;;
14181;SDS011;7171;50.936;6.764;2024-03-25T01:06:38;6.93;;;2.37;;
14181;SDS011;7171;50.936;6.764;2024-03-25T01:09:04;8.83;;;2.93;;
14181;SDS011;7171;50.936;6.764;2024-03-25T01:11:33;2.57;;;1.70;;
14181;SDS011;7171;50.936;6.764;2024-03-25T01:13:58;4.13;;;2.00;;
14181;SDS011;7171;50.936;6.764;2024-03-25T01:16:25;8.57;;;2.10;;
14181;SDS011;7171;50.936;6.764;2024-03-25T01:18:51;6.23;;;2.53;;
14181;SDS011;7171;50.936;6.764;2024-03-25T01:21:18;5.33;;;2.73;;
14181;SDS011;7171;50.936;6.764;2024-03-25T01:23:44;5.63;;;2.47;;
14181;SDS011;7171;50.936;6.764;2024-03-25T01:26:11;4.90;;;2.70;;
14181;SDS011;7171;50.936;6.764;2024-03-25T01:28:38;6.37;;;2.10;;
14181;SDS011;7171;50.936;6.764;2024-03-25T01:31:05;4.83;;;2.00;;
14181;SDS011;7171;50.936;6.764;2024-03-25T01:33:30;3.23;;;2.00;;
14181;SDS011;7171;50.936;6.764;2024-03-25T01:35:57;8.63;;;2.47;;
14181;SDS011;7171;50.936;6.764;2024-03-25T01:38:23;5.93;;;2.33;;
14181;SDS011;7171;50.936;6.764;2024-03-25T01:40:50;2.63;;;1.80;;
14181;SDS011;7171;50.936;6.764;2024-03-25T01:43:15;4.50;;;1.97;;
14181;SDS011;7171;50.936;6.764;2024-03-25T01:45:43;8.53;;;2.83;;
14181;SDS011;7171;50.936;6.764;2024-03-25T01:48:09;4.13;;;2.27;;
14181;SDS011;7171;50.936;6.764;2024-03-25T01:50:39;8.47;;;2.37;;
14181;SDS011;7171;50.936;6.764;2024-03-25T01:53:08;6.53;;;2.20;;
14181;SDS011;7171;50.936;6.764;2024-03-25T01:55:36;11.73;;;2.80;;
14181;SDS011;7171;50.936;6.764;2024-03-25T01:58:03;3.13;;;1.83;;
14181;SDS011;7171;50.936;6.764;2024-03-25T02:00:31;9.53;;;2.47;;
14181;SDS011;7171;50.936;6.764;2024-03-25T02:02:58;7.83;;;2.53;;
14181;SDS011;7171;50.936;6.764;2024-03-25T02:05:25;4.80;;;2.43;;
14181;SDS011;7171;50.936;6.764;2024-03-25T02:07:51;4.43;;;1.87;;
14181;SDS011;7171;50.936;6.764;2024-03-25T02:10:19;5.33;;;2.90;;
14181;SDS011;7171;50.936;6.764;2024-03-25T02:12:46;3.10;;;1.90;;
14181;SDS011;7171;50.936;6.764;2024-03-25T02:15:13;3.27;;;2.17;;
14181;SDS011;7171;50.936;6.764;2024-03-25T02:17:39;2.87;;;1.90;;
14181;SDS011;7171;50.936;6.764;2024-03-25T02:20:08;4.00;;;1.83;;
14181;SDS011;7171;50.936;6.764;2024-03-25T02:22:35;5.97;;;2.87;;
14181;SDS011;7171;50.936;6.764;2024-03-25T02:25:03;16.23;;;2.07;;
14181;SDS011;7171;50.936;6.764;2024-03-25T02:27:34;3.40;;;2.70;;
14181;SDS011;7171;50.936;6.764;2024-03-25T02:30:02;8.97;;;2.63;;
14181;SDS011;7171;50.936;6.764;2024-03-25T02:32:30;8.43;;;2.33;;
14181;SDS011;7171;50.936;6.764;2024-03-25T02:34:57;9.63;;;2.83;;
14181;SDS011;7171;50.936;6.764;2024-03-25T02:37:23;5.07;;;2.37;;
14181;SDS011;7171;50.936;6.764;2024-03-25T02:39:51;6.03;;;2.00;;
14181;SDS011;7171;50.936;6.764;2024-03-25T02:42:17;7.23;;;2.40;;
14181;SDS011;7171;50.936;6.764;2024-03-25T02:44:46;3.57;;;1.70;;
14181;SDS011;7171;50.936;6.764;2024-03-25T02:47:12;5.93;;;2.47;;
14181;SDS011;7171;50.936;6.764;2024-03-25T02:49:39;8.20;;;2.70;;
14181;SDS011;7171;50.936;6.764;2024-03-25T02:52:05;5.70;;;2.17;;
14181;SDS011;7171;50.936;6.764;2024-03-25T02:54:32;7.27;;;2.03;;
14181;SDS011;7171;50.936;6.764;2024-03-25T02:56:57;5.50;;;2.23;;
14181;SDS011;7171;50.936;6.764;2024-03-25T02:59:24;5.20;;;2.03;;
14181;SDS011;7171;50.936;6.764;2024-03-25T03:01:51;5.70;;;1.90;;
14181;SDS011;7171;50.936;6.764;2024-03-25T03:04:18;2.27;;;1.43;;
14181;SDS011;7171;50.936;6.764;2024-03-25T03:06:44;9.73;;;1.57;;
14181;SDS011;7171;50.936;6.764;2024-03-25T03:09:10;4.50;;;2.40;;
14181;SDS011;7171;50.936;6.764;2024-03-25T03:11:36;3.90;;;1.90;;
14181;SDS011;7171;50.936;6.764;2024-03-25T03:14:03;4.30;;;2.13;;
14181;SDS011;7171;50.936;6.764;2024-03-25T03:16:29;4.10;;;1.60;;
14181;SDS011;7171;50.936;6.764;2024-03-25T03:18:57;1.63;;;1.40;;
14181;SDS011;7171;50.936;6.764;2024-03-25T03:21:23;3.40;;;1.60;;
14181;SDS011;7171;50.936;6.764;2024-03-25T03:23:50;4.87;;;2.20;;
14181;SDS011;7171;50.936;6.764;2024-03-25T03:26:15;7.90;;;1.80;;
14181;SDS011;7171;50.936;6.764;2024-03-25T03:28:42;5.30;;;2.07;;
14181;SDS011;7171;50.936;6.764;2024-03-25T03:31:08;2.00;;;1.80;;
14181;SDS011;7171;50.936;6.764;2024-03-25T03:33:34;2.13;;;1.90;;
14181;SDS011;7171;50.936;6.764;2024-03-25T03:36:02;3.57;;;1.97;;
14181;SDS011;7171;50.936;6.764;2024-03-25T03:38:29;9.67;;;2.13;;
14181;SDS011;7171;50.936;6.764;2024-03-25T03:40:58;3.43;;;1.87;;
14181;SDS011;7171;50.936;6.764;2024-03-25T03:43:25;3.53;;;1.90;;
14181;SDS011;7171;50.936;6.764;2024-03-25T03:45:50;9.60;;;1.97;;
14181;SDS011;7171;50.936;6.764;2024-03-25T03:48:17;8.80;;;2.87;;
14181;SDS011;7171;50.936;6.764;2024-03-25T03:50:43;9.13;;;2.73;;
14181;SDS011;7171;50.936;6.764;2024-03-25T03:53:12;4.17;;;2.10;;
14181;SDS011;7171;50.936;6.764;2024-03-25T03:55:38;6.20;;;1.77;;
14181;SDS011;7171;50.936;6.764;2024-03-25T03:58:05;7.73;;;2.40;;
14181;SDS011;7171;50.936;6.764;2024-03-25T04:00:32;4.03;;;1.70;;
14181;SDS011;7171;50.936;6.764;2024-03-25T04:03:00;6.37;;;2.23;;
14181;SDS011;7171;50.936;6.764;2024-03-25T04:05:28;7.80;;;1.83;;
14181;SDS011;7171;50.936;6.764;2024-03-25T04:07:55;3.63;;;1.57;;
14181;SDS011;7171;50.936;6.764;2024-03-25T04:10:23;2.63;;;1.73;;
14181;SDS011;7171;50.936;6.764;2024-03-25T04:12:50;6.43;;;1.97;;
14181;SDS011;7171;50.936;6.764;2024-03-25T04:15:16;2.43;;;1.27;;
14181;SDS011;7171;50.936;6.764;2024-03-25T04:17:44;6.43;;;2.60;;
14181;SDS011;7171;50.936;6.764;2024-03-25T04:20:10;2.57;;;1.73;;
14181;SDS011;7171;50.936;6.764;2024-03-25T04:22:40;5.43;;;2.27;;
14181;SDS011;7171;50.936;6.764;2024-03-25T04:25:07;3.80;;;2.33;;
14181;SDS011;7171;50.936;6.764;2024-03-25T04:27:37;6.30;;;1.83;;
14181;SDS011;7171;50.936;6.764;2024-03-25T04:30:04;7.60;;;2.43;;
14181;SDS011;7171;50.936;6.764;2024-03-25T04:32:32;5.23;;;2.07;;
14181;SDS011;7171;50.936;6.764;2024-03-25T04:34:58;6.47;;;2.27;;
14181;SDS011;7171;50.936;6.764;2024-03-25T04:37:24;9.07;;;2.37;;
14181;SDS011;7171;50.936;6.764;2024-03-25T04:39:50;4.67;;;2.73;;
14181;SDS011;7171;50.936;6.764;2024-03-25T04:42:16;2.20;;;1.57;;
14181;SDS011;7171;50.936;6.764;2024-03-25T04:44:43;3.77;;;2.27;;
14181;SDS011;7171;50.936;6.764;2024-03-25T04:47:09;6.83;;;1.73;;
14181;SDS011;7171;50.936;6.764;2024-03-25T04:49:35;4.33;;;2.13;;
14181;SDS011;7171;50.936;6.764;2024-03-25T04:52:01;6.13;;;1.73;;
14181;SDS011;7171;50.936;6.764;2024-03-25T04:54:27;5.00;;;2.50;;
14181;SDS011;7171;50.936;6.764;2024-03-25T04:56:53;4.40;;;2.53;;
14181;SDS011;7171;50.936;6.764;2024-03-25T04:59:19;6.07;;;1.93;;
14181;SDS011;7171;50.936;6.764;2024-03-25T05:01:46;3.47;;;2.03;;
14181;SDS011;7171;50.936;6.764;2024-03-25T05:04:12;4.57;;;1.80;;
14181;SDS011;7171;50.936;6.764;2024-03-25T05:06:38;4.50;;;2.47;;
14181;SDS011;7171;50.936;6.764;2024-03-25T05:09:04;10.77;;;2.77;;
14181;SDS011;7171;50.936;6.764;2024-03-25T05:11:30;3.07;;;1.93;;
14181;SDS011;7171;50.936;6.764;2024-03-25T05:13:56;12.53;;;2.50;;
14181;SDS011;7171;50.936;6.764;2024-03-25T05:16:22;8.03;;;2.63;;
14181;SDS011;7171;50.936;6.764;2024-03-25T05:18:49;7.00;;;2.00;;
14181;SDS011;7171;50.936;6.764;2024-03-25T05:21:15;12.17;;;3.03;;
14181;SDS011;7171;50.936;6.764;2024-03-25T05:23:41;6.33;;;1.80;;
14181;SDS011;7171;50.936;6.764;2024-03-25T05:26:07;4.87;;;3.63;;
14181;SDS011;7171;50.936;6.764;2024-03-25T05:28:32;8.17;;;2.77;;
14181;SDS011;7171;50.936;6.764;2024-03-25T05:31:04;4.30;;;2.27;;
14181;SDS011;7171;50.936;6.764;2024-03-25T05:33:30;9.00;;;2.90;;
14181;SDS011;7171;50.936;6.764;2024-03-25T05:35:57;4.83;;;2.67;;
14181;SDS011;7171;50.936;6.764;2024-03-25T05:38:23;6.47;;;2.10;;
14181;SDS011;7171;50.936;6.764;2024-03-25T05:40:49;6.50;;;3.43;;
14181;SDS011;7171;50.936;6.764;2024-03-25T05:43:15;4.00;;;2.13;;
14181;SDS011;7171;50.936;6.764;2024-03-25T05:45:41;4.40;;;2.57;;
14181;SDS011;7171;50.936;6.764;2024-03-25T05:48:15;6.20;;;2.43;;
14181;SDS011;7171;50.936;6.764;2024-03-25T05:50:40;5.17;;;2.53;;
14181;SDS011;7171;50.936;6.764;2024-03-25T05:53:08;5.47;;;2.20;;
14181;SDS011;7171;50.936;6.764;2024-03-25T05:55:33;7.77;;;2.50;;
14181;SDS011;7171;50.936;6.764;2024-03-25T05:57:59;5.47;;;2.10;;
14181;SDS011;7171;50.936;6.764;2024-03-25T06:00:25;4.17;;;2.33;;
14181;SDS011;7171;50.936;6.764;2024-03-25T06:02:51;3.57;;;2.13;;
14181;SDS011;7171;50.936;6.764;2024-03-25T06:05:17;4.07;;;2.30;;
14181;SDS011;7171;50.936;6.764;2024-03-25T06:07:43;6.40;;;2.60;;
14181;SDS011;7171;50.936;6.764;2024-03-25T06:10:11;8.23;;;3.00;;
14181;SDS011;7171;50.936;6.764;2024-03-25T06:12:36;6.93;;;2.03;;
14181;SDS011;7171;50.936;6.764;2024-03-25T06:15:02;5.53;;;2.70;;
14181;SDS011;7171;50.936;6.764;2024-03-25T06:17:29;6.13;;;2.07;;
14181;SDS011;7171;50.936;6.764;2024-03-25T06:19:55;6.53;;;3.40;;
14181;SDS011;7171;50.936;6.764;2024-03-25T06:22:20;5.77;;;3.03;;
14181;SDS011;7171;50.936;6.764;2024-03-25T06:24:46;4.33;;;2.10;;
14181;SDS011;7171;50.936;6.764;2024-03-25T06:27:13;4.67;;;1.87;;
14181;SDS011;7171;50.936;6.764;2024-03-25T06:29:39;4.73;;;2.00;;
14181;SDS011;7171;50.936;6.764;2024-03-25T06:32:05;2.43;;;2.20;;
14181;SDS011;7171;50.936;6.764;2024-03-25T06:34:49;5.70;;;1.93;;
14181;SDS011;7171;50.936;6.764;2024-03-25T06:37:15;6.77;;;2.27;;
14181;SDS011;7171;50.936;6.764;2024-03-25T06:39:41;5.57;;;1.93;;
14181;SDS011;7171;50.936;6.764;2024-03-25T06:42:07;3.40;;;1.80;;
14181;SDS011;7171;50.936;6.764;2024-03-25T06:44:34;4.27;;;1.93;;
14181;SDS011;7171;50.936;6.764;2024-03-25T06:47:00;5.90;;;2.13;;
14181;SDS011;7171;50.936;6.764;2024-03-25T06:49:26;3.37;;;1.80;;
14181;SDS011;7171;50.936;6.764;2024-03-25T06:51:52;3.20;;;1.80;;
14181;SDS011;7171;50.936;6.764;2024-03-25T06:54:17;3.67;;;2.00;;
14181;SDS011;7171;50.936;6.764;2024-03-25T06:56:43;9.53;;;2.50;;
14181;SDS011;7171;50.936;6.764;2024-03-25T06:59:09;4.27;;;2.50;;
14181;SDS011;7171;50.936;6.764;2024-03-25T07:01:36;7.53;;;1.93;;
14181;SDS011;7171;50.936;6.764;2024-03-25T07:04:02;8.93;;;2.10;;
14181;SDS011;7171;50.936;6.764;2024-03-25T07:06:28;2.03;;;1.60;;
14181;SDS011;7171;50.936;6.764;2024-03-25T07:08:54;5.37;;;1.70;;
14181;SDS011;7171;50.936;6.764;2024-03-25T07:11:20;3.53;;;2.10;;
14181;SDS011;7171;50.936;6.764;2024-03-25T07:13:46;2.70;;;1.87;;
14181;SDS011;7171;50.936;6.764;2024-03-25T07:16:12;6.53;;;2.57;;
14181;SDS011;7171;50.936;6.764;2024-03-25T07:18:39;8.87;;;2.30;;
14181;SDS011;7171;50.936;6.764;2024-03-25T07:21:05;3.47;;;2.00;;
14181;SDS011;7171;50.936;6.764;2024-03-25T07:23:31;4.67;;;2.50;;
14181;SDS011;7171;50.936;6.764;2024-03-25T07:25:57;2.27;;;1.87;;
14181;SDS011;7171;50.936;6.764;2024-03-25T07:28:22;6.70;;;2.23;;
14181;SDS011;7171;50.936;6.764;2024-03-25T07:30:49;1.90;;;1.80;;
14181;SDS011;7171;50.936;6.764;2024-03-25T07:33:15;7.07;;;1.80;;
14181;SDS011;7171;50.936;6.764;2024-03-25T07:35:42;3.73;;;2.20;;
14181;SDS011;7171;50.936;6.764;2024-03-25T07:38:09;3.30;;;2.07;;
14181;SDS011;7171;50.936;6.764;2024-03-25T07:40:35;3.63;;;2.60;;
14181;SDS011;7171;50.936;6.764;2024-03-25T07:43:01;10.07;;;2.53;;
14181;SDS011;7171;50.936;6.764;2024-03-25T07:45:27;7.57;;;2.33;;
14181;SDS011;7171;50.936;6.764;2024-03-25T07:47:53;4.27;;;2.13;;
14181;SDS011;7171;50.936;6.764;2024-03-25T07:50:19;4.60;;;2.23;;
14181;SDS011;7171;50.936;6.764;2024-03-25T07:52:46;3.63;;;2.93;;
14181;SDS011;7171;50.936;6.764;2024-03-25T07:55:12;2.40;;;2.03;;
14181;SDS011;7171;50.936;6.764;2024-03-25T07:57:38;4.37;;;2.70;;
14181;SDS011;7171;50.936;6.764;2024-03-25T08:00:04;3.20;;;2.50;;
14181;SDS011;7171;50.936;6.764;2024-03-25T08:02:31;6.53;;;2.47;;
14181;SDS011;7171;50.936;6.764;2024-03-25T08:04:57;2.50;;;2.23;;
14181;SDS011;7171;50.936;6.764;2024-03-25T08:07:23;4.07;;;2.53;;
14181;SDS011;7171;50.936;6.764;2024-03-25T08:09:50;3.90;;;2.60;;
14181;SDS011;7171;50.936;6.764;2024-03-25T08:12:16;8.23;;;2.80;;
14181;SDS011;7171;50.936;6.764;2024-03-25T08:14:41;3.73;;;2.30;;
14181;SDS011;7171;50.936;6.764;2024-03-25T08:17:08;6.73;;;2.20;;
14181;SDS011;7171;50.936;6.764;2024-03-25T08:19:34;2.50;;;2.17;;
14181;SDS011;7171;50.936;6.764;2024-03-25T08:22:00;4.10;;;1.80;;
14181;SDS011;7171;50.936;6.764;2024-03-25T08:24:26;9.87;;;2.67;;
14181;SDS011;7171;50.936;6.764;2024-03-25T08:26:53;3.93;;;2.27;;
14181;SDS011;7171;50.936;6.764;2024-03-25T08:29:19;5.63;;;2.47;;
14181;SDS011;7171;50.936;6.764;2024-03-25T08:31:44;2.40;;;2.10;;
14181;SDS011;7171;50.936;6.764;2024-03-25T08:34:10;5.00;;;2.13;;
14181;SDS011;7171;50.936;6.764;2024-03-25T08:36:36;2.17;;;1.57;;
14181;SDS011;7171;50.936;6.764;2024-03-25T08:39:02;5.10;;;2.50;;
14181;SDS011;7171;50.936;6.764;2024-03-25T08:41:28;4.50;;;2.13;;
14181;SDS011;7171;50.936;6.764;2024-03-25T08:43:55;3.03;;;1.83;;
14181;SDS011;7171;50.936;6.764;2024-03-25T08:46:21;4.00;;;2.03;;
14181;SDS011;7171;50.936;6.764;2024-03-25T08:48:47;3.97;;;2.33;;
14181;SDS011;7171;50.936;6.764;2024-03-25T08:51:13;6.10;;;2.17;;
14181;SDS011;7171;50.936;6.764;2024-03-25T08:53:38;2.80;;;2.30;;
14181;SDS011;7171;50.936;6.764;2024-03-25T08:56:04;6.20;;;2.17;;
14181;SDS011;7171;50.936;6.764;2024-03-25T08:58:30;6.40;;;2.37;;
14181;SDS011;7171;50.936;6.764;2024-03-25T09:00:58;3.10;;;2.10;;
14181;SDS011;7171;50.936;6.764;2024-03-25T09:03:24;13.17;;;2.50;;
14181;SDS011;7171;50.936;6.764;2024-03-25T09:05:49;5.73;;;1.80;;
14181;SDS011;7171;50.936;6.764;2024-03-25T09:08:15;4.40;;;2.50;;
14181;SDS011;7171;50.936;6.764;2024-03-25T09:10:43;2.70;;;1.77;;
14181;SDS011;7171;50.936;6.764;2024-03-25T09:13:27;6.80;;;2.40;;
14181;SDS011;7171;50.936;6.764;2024-03-25T09:15:52;8.17;;;2.53;;
14181;SDS011;7171;50.936;6.764;2024-03-25T09:18:20;5.43;;;2.57;;
14181;SDS011;7171;50.936;6.764;2024-03-25T09:20:45;4.87;;;2.20;;
14181;SDS011;7171;50.936;6.764;2024-03-25T09:23:11;6.47;;;2.97;;
14181;SDS011;7171;50.936;6.764;2024-03-25T09:25:37;5.77;;;3.17;;
14181;SDS011;7171;50.936;6.764;2024-03-25T09:28:03;5.83;;;2.47;;
14181;SDS011;7171;50.936;6.764;2024-03-25T09:30:29;5.47;;;2.33;;
14181;SDS011;7171;50.936;6.764;2024-03-25T09:32:55;8.33;;;3.07;;
14181;SDS011;7171;50.936;6.764;2024-03-25T09:35:22;9.20;;;2.60;;
14181;SDS011;7171;50.936;6.764;2024-03-25T09:37:48;6.13;;;2.80;;
14181;SDS011;7171;50.936;6.764;2024-03-25T09:40:14;6.07;;;2.40;;
14181;SDS011;7171;50.936;6.764;2024-03-25T09:42:42;4.80;;;2.00;;
14181;SDS011;7171;50.936;6.764;2024-03-25T09:45:12;3.00;;;1.70;;
14181;SDS011;7171;50.936;6.764;2024-03-25T09:47:40;3.70;;;2.47;;
14181;SDS011;7171;50.936;6.764;2024-03-25T09:50:08;6.47;;;2.57;;
14181;SDS011;7171;50.936;6.764;2024-03-25T09:52:37;6.53;;;2.47;;
14181;SDS011;7171;50.936;6.764;2024-03-25T09:55:03;7.33;;;2.13;;
14181;SDS011;7171;50.936;6.764;2024-03-25T09:57:29;3.87;;;2.17;;
14181;SDS011;7171;50.936;6.764;2024-03-25T09:59:55;6.10;;;2.40;;
14181;SDS011;7171;50.936;6.764;2024-03-25T10:02:21;6.90;;;2.30;;
14181;SDS011;7171;50.936;6.764;2024-03-25T10:04:47;5.13;;;2.47;;
14181;SDS011;7171;50.936;6.764;2024-03-25T10:07:16;4.27;;;1.73;;
14181;SDS011;7171;50.936;6.764;2024-03-25T10:09:48;6.57;;;2.37;;
14181;SDS011;7171;50.936;6.764;2024-03-25T10:12:14;2.17;;;1.63;;
14181;SDS011;7171;50.936;6.764;2024-03-25T10:14:40;8.50;;;1.70;;
14181;SDS011;7171;50.936;6.764;2024-03-25T10:17:06;4.50;;;1.73;;
14181;SDS011;7171;50.936;6.764;2024-03-25T10:19:32;5.80;;;1.77;;
14181;SDS011;7171;50.936;6.764;2024-03-25T10:22:04;3.53;;;1.80;;
14181;SDS011;7171;50.936;6.764;2024-03-25T10:24:38;3.17;;;1.87;;
14181;SDS011;7171;50.936;6.764;2024-03-25T10:27:06;2.47;;;1.57;;
14181;SDS011;7171;50.936;6.764;2024-03-25T10:29:36;3.60;;;1.50;;
14181;SDS011;7171;50.936;6.764;2024-03-25T10:32:02;8.20;;;1.73;;
14181;SDS011;7171;50.936;6.764;2024-03-25T10:34:28;3.63;;;1.33;;
14181;SDS011;7171;50.936;6.764;2024-03-25T10:36:56;2.77;;;1.47;;
14181;SDS011;7171;50.936;6.764;2024-03-25T10:39:24;2.13;;;1.20;;
14181;SDS011;7171;50.936;6.764;2024-03-25T10:41:52;2.30;;;1.20;;
14181;SDS011;7171;50.936;6.764;2024-03-25T10:44:22;2.25;;;1.60;;
14181;SDS011;7171;50.936;6.764;2024-03-25T10:46:49;2.10;;;1.52;;
14181;SDS011;7171;50.936;6.764;2024-03-25T10:49:21;2.63;;;1.83;;
14181;SDS011;7171;50.936;6.764;2024-03-25T10:51:57;4.43;;;2.00;;
14181;SDS011;7171;50.936;6.764;2024-03-25T10:54:24;8.85;;;1.98;;
14181;SDS011;7171;50.936;6.764;2024-03-25T10:56:51;1.60;;;1.50;;
14181;SDS011;7171;50.936;6.764;2024-03-25T10:59:19;6.53;;;1.38;;
14181;SDS011;7171;50.936;6.764;2024-03-25T11:01:49;4.47;;;1.45;;
14181;SDS011;7171;50.936;6.764;2024-03-25T11:04:15;1.98;;;1.30;;
14181;SDS011;7171;50.936;6.764;2024-03-25T11:06:41;3.88;;;1.52;;
14181;SDS011;7171;50.936;6.764;2024-03-25T11:09:06;5.05;;;1.15;;
14181;SDS011;7171;50.936;6.764;2024-03-25T11:11:32;0.82;;;0.82;;
14181;SDS011;7171;50.936;6.764;2024-03-25T11:13:59;5.63;;;1.33;;
14181;SDS011;7171;50.936;6.764;2024-03-25T11:16:28;0.68;;;0.68;;
14181;SDS011;7171;50.936;6.764;2024-03-25T11:18:59;4.57;;;1.20;;
14181;SDS011;7171;50.936;6.764;2024-03-25T11:21:27;2.75;;;1.50;;
14181;SDS011;7171;50.936;6.764;2024-03-25T11:23:54;1.58;;;1.20;;
14181;SDS011;7171;50.936;6.764;2024-03-25T11:26:20;5.93;;;1.13;;
14181;SDS011;7171;50.936;6.764;2024-03-25T11:28:47;2.90;;;1.23;;
14181;SDS011;7171;50.936;6.764;2024-03-25T11:31:13;1.33;;;1.00;;
14181;SDS011;7171;50.936;6.764;2024-03-25T11:33:40;3.60;;;1.50;;
14181;SDS011;7171;50.936;6.764;2024-03-25T11:36:09;3.53;;;1.25;;
14181;SDS011;7171;50.936;6.764;2024-03-25T11:38:35;1.20;;;1.10;;
14181;SDS011;7171;50.936;6.764;2024-03-25T11:41:01;1.20;;;1.10;;
14181;SDS011;7171;50.936;6.764;2024-03-25T11:43:27;3.33;;;1.35;;
14181;SDS011;7171;50.936;6.764;2024-03-25T11:45:53;3.05;;;1.40;;
14181;SDS011;7171;50.936;6.764;2024-03-25T11:48:19;1.20;;;1.10;;
14181;SDS011;7171;50.936;6.764;2024-03-25T11:50:45;2.28;;;1.15;;
14181;SDS011;7171;50.936;6.764;2024-03-25T11:53:14;7.63;;;1.00;;
14181;SDS011;7171;50.936;6.764;2024-03-25T11:55:40;1.70;;;1.20;;
14181;SDS011;7171;50.936;6.764;2024-03-25T11:58:06;3.80;;;1.38;;
14181;SDS011;7171;50.936;6.764;2024-03-25T12:00:33;2.78;;;1.50;;
14181;SDS011;7171;50.936;6.764;2024-03-25T12:02:59;1.67;;;1.00;;
14181;SDS011;7171;50.936;6.764;2024-03-25T12:05:25;2.00;;;0.85;;
14181;SDS011;7171;50.936;6.764;2024-03-25T12:07:51;1.00;;;0.90;;
14181;SDS011;7171;50.936;6.764;2024-03-25T12:10:18;1.55;;;1.15;;
14181;SDS011;7171;50.936;6.764;2024-03-25T12:13:03;1.90;;;0.90;;
14181;SDS011;7171;50.936;6.764;2024-03-25T12:15:29;1.17;;;0.90;;
14181;SDS011;7171;50.936;6.764;2024-03-25T12:17:55;1.35;;;1.05;;
14181;SDS011;7171;50.936;6.764;2024-03-25T12:20:21;2.17;;;0.95;;
14181;SDS011;7171;50.936;6.764;2024-03-25T12:22:48;2.00;;;1.20;;
14181;SDS011;7171;50.936;6.764;2024-03-25T12:25:14;3.45;;;1.10;;
14181;SDS011;7171;50.936;6.764;2024-03-25T12:27:41;1.02;;;0.93;;
14181;SDS011;7171;50.936;6.764;2024-03-25T12:30:11;1.05;;;0.95;;
14181;SDS011;7171;50.936;6.764;2024-03-25T12:32:38;2.42;;;1.05;;
14181;SDS011;7171;50.936;6.764;2024-03-25T12:35:06;1.80;;;1.17;;
14181;SDS011;7171;50.936;6.764;2024-03-25T12:37:34;4.40;;;1.45;;
14181;SDS011;7171;50.936;6.764;2024-03-25T12:40:01;1.23;;;1.00;;
14181;SDS011;7171;50.936;6.764;2024-03-25T12:42:27;5.15;;;1.17;;
14181;SDS011;7171;50.936;6.764;2024-03-25T12:44:54;2.88;;;1.10;;
14181;SDS011;7171;50.936;6.764;2024-03-25T12:47:21;1.40;;;1.30;;
14181;SDS011;7171;50.936;6.764;2024-03-25T12:49:47;2.03;;;1.23;;
14181;SDS011;7171;50.936;6.764;2024-03-25T12:52:13;1.63;;;1.30;;
14181;SDS011;7171;50.936;6.764;2024-03-25T12:54:39;2.05;;;1.20;;
14181;SDS011;7171;50.936;6.764;2024-03-25T12:57:05;1.27;;;1.08;;
14181;SDS011;7171;50.936;6.764;2024-03-25T12:59:30;3.03;;;1.27;;
14181;SDS011;7171;50.936;6.764;2024-03-25T13:01:58;2.70;;;0.98;;
14181;SDS011;7171;50.936;6.764;2024-03-25T13:04:25;1.90;;;1.10;;
14181;SDS011;7171;50.936;6.764;2024-03-25T13:06:51;1.40;;;1.27;;
14181;SDS011;7171;50.936;6.764;2024-03-25T13:09:17;1.33;;;1.05;;
14181;SDS011;7171;50.936;6.764;2024-03-25T13:11:43;1.50;;;1.05;;
14181;SDS011;7171;50.936;6.764;2024-03-25T13:14:10;1.33;;;1.08;;
14181;SDS011;7171;50.936;6.764;2024-03-25T13:16:37;2.65;;;1.17;;
14181;SDS011;7171;50.936;6.764;2024-03-25T13:19:04;2.30;;;1.20;;
14181;SDS011;7171;50.936;6.764;2024-03-25T13:21:30;1.73;;;1.10;;
14181;SDS011;7171;50.936;6.764;2024-03-25T13:23:56;1.17;;;1.02;;
14181;SDS011;7171;50.936;6.764;2024-03-25T13:26:21;2.13;;;1.40;;
14181;SDS011;7171;50.936;6.764;2024-03-25T13:28:47;2.10;;;1.30;;
14181;SDS011;7171;50.936;6.764;2024-03-25T13:31:13;3.17;;;1.27;;
14181;SDS011;7171;50.936;6.764;2024-03-25T13:33:40;1.23;;;1.13;;
14181;SDS011;7171;50.936;6.764;2024-03-25T13:36:08;3.60;;;1.42;;
14181;SDS011;7171;50.936;6.764;2024-03-25T13:38:34;2.72;;;1.65;;
14181;SDS011;7171;50.936;6.764;2024-03-25T13:41:00;3.70;;;1.35;;
14181;SDS011;7171;50.936;6.764;2024-03-25T13:43:26;5.97;;;2.08;;
14181;SDS011;7171;50.936;6.764;2024-03-25T13:45:52;5.72;;;1.58;;
14181;SDS011;7171;50.936;6.764;2024-03-25T13:48:18;1.60;;;0.95;;
14181;SDS011;7171;50.936;6.764;2024-03-25T13:50:44;2.35;;;1.05;;
14181;SDS011;7171;50.936;6.764;2024-03-25T13:53:11;5.95;;;1.52;;
14181;SDS011;7171;50.936;6.764;2024-03-25T13:55:37;2.47;;;1.23;;
14181;SDS011;7171;50.936;6.764;2024-03-25T13:58:03;4.68;;;1.10;;
14181;SDS011;7171;50.936;6.764;2024-03-25T14:00:29;2.03;;;1.30;;
14181;SDS011;7171;50.936;6.764;2024-03-25T14:02:55;2.40;;;1.45;;
14181;SDS011;7171;50.936;6.764;2024-03-25T14:05:21;4.40;;;1.20;;
14181;SDS011;7171;50.936;6.764;2024-03-25T14:07:47;1.60;;;1.20;;
14181;SDS011;7171;50.936;6.764;2024-03-25T14:10:15;3.95;;;1.50;;
14181;SDS011;7171;50.936;6.764;2024-03-25T14:12:41;5.15;;;1.40;;
14181;SDS011;7171;50.936;6.764;2024-03-25T14:15:07;3.03;;;1.10;;
14181;SDS011;7171;50.936;6.764;2024-03-25T14:17:33;1.23;;;1.13;;
14181;SDS011;7171;50.936;6.764;2024-03-25T14:19:59;1.88;;;1.45;;
14181;SDS011;7171;50.936;6.764;2024-03-25T14:22:25;2.42;;;1.25;;
14181;SDS011;7171;50.936;6.764;2024-03-25T14:24:51;7.82;;;1.63;;
14181;SDS011;7171;50.936;6.764;2024-03-25T14:27:19;2.38;;;1.10;;
14181;SDS011;7171;50.936;6.764;2024-03-25T14:29:45;3.28;;;1.60;;
14181;SDS011;7171;50.936;6.764;2024-03-25T14:32:11;1.77;;;1.13;;
14181;SDS011;7171;50.936;6.764;2024-03-25T14:34:36;0.95;;;0.85;;
14181;SDS011;7171;50.936;6.764;2024-03-25T14:37:02;1.58;;;1.25;;
14181;SDS011;7171;50.936;6.764;2024-03-25T14:39:28;3.00;;;1.20;;
14181;SDS011;7171;50.936;6.764;2024-03-25T14:41:54;3.67;;;1.55;;
14181;SDS011;7171;50.936;6.764;2024-03-25T14:44:21;2.95;;;1.40;;
14181;SDS011;7171;50.936;6.764;2024-03-25T14:46:47;2.33;;;1.52;;
14181;SDS011;7171;50.936;6.764;2024-03-25T14:49:13;2.20;;;1.30;;
14181;SDS011;7171;50.936;6.764;2024-03-25T14:51:39;1.95;;;1.45;;
14181;SDS011;7171;50.936;6.764;2024-03-25T14:54:05;2.28;;;1.60;;
14181;SDS011;7171;50.936;6.764;2024-03-25T14:56:31;4.05;;;1.80;;